sensor_id;sensor_type;location;lat;lon;timestamp;P1;durP1;ratioP1;P2;durP2;ratioP2
6850;SDS011;3464;42.728;23.296;2023-07-29T00:02:24;12.07;;;4.17;;
6850;SDS011;3464;42.728;23.296;2023-07-29T00:04:51;10.50;;;4.03;;
6850;SDS011;3464;42.728;23.296;2023-07-29T00:07:17;14.87;;;3.90;;
6850;SDS011;3464;42.728;23.296;2023-07-29T00:09:44;9.80;;;3.60;;
6850;SDS011;3464;42.728;23.296;2023-07-29T00:12:10;10.60;;;3.50;;
6850;SDS011;3464;42.728;23.296;2023-07-29T00:14:37;17.53;;;3.87;;
6850;SDS011;3464;42.728;23.296;2023-07-29T00:17:03;14.03;;;3.63;;
6850;SDS011;3464;42.728;23.296;2023-07-29T00:19:30;11.80;;;3.80;;
6850;SDS011;3464;42.728;23.296;2023-07-29T00:21:57;10.80;;;4.23;;
6850;SDS011;3464;42.728;23.296;2023-07-29T00:24:24;11.03;;;4.20;;
6850;SDS011;3464;42.728;23.296;2023-07-29T00:26:51;10.70;;;3.70;;
6850;SDS011;3464;42.728;23.296;2023-07-29T00:29:17;12.23;;;3.83;;
6850;SDS011;3464;42.728;23.296;2023-07-29T00:31:44;17.30;;;4.20;;
6850;SDS011;3464;42.728;23.296;2023-07-29T00:34:11;11.17;;;4.10;;
6850;SDS011;3464;42.728;23.296;2023-07-29T00:36:37;12.63;;;3.73;;
6850;SDS011;3464;42.728;23.296;2023-07-29T00:39:04;11.70;;;3.70;;
6850;SDS011;3464;42.728;23.296;2023-07-29T00:41:30;10.50;;;3.80;;
6850;SDS011;3464;42.728;23.296;2023-07-29T00:43:57;10.53;;;3.90;;
6850;SDS011;3464;42.728;23.296;2023-07-29T00:46:23;11.00;;;3.73;;
6850;SDS011;3464;42.728;23.296;2023-07-29T00:48:50;9.90;;;3.37;;
6850;SDS011;3464;42.728;23.296;2023-07-29T00:51:16;12.77;;;3.90;;
6850;SDS011;3464;42.728;23.296;2023-07-29T00:53:43;12.77;;;4.43;;
6850;SDS011;3464;42.728;23.296;2023-07-29T00:56:09;11.67;;;3.53;;
6850;SDS011;3464;42.728;23.296;2023-07-29T00:58:36;10.90;;;3.53;;
6850;SDS011;3464;42.728;23.296;2023-07-29T01:01:03;10.13;;;4.00;;
6850;SDS011;3464;42.728;23.296;2023-07-29T01:03:30;11.47;;;4.43;;
6850;SDS011;3464;42.728;23.296;2023-07-29T01:06:08;13.43;;;4.33;;
6850;SDS011;3464;42.728;23.296;2023-07-29T01:08:38;11.17;;;4.10;;
6850;SDS011;3464;42.728;23.296;2023-07-29T01:11:18;12.97;;;4.13;;
6850;SDS011;3464;42.728;23.296;2023-07-29T01:13:57;11.57;;;4.07;;
6850;SDS011;3464;42.728;23.296;2023-07-29T01:16:16;12.67;;;3.87;;
6850;SDS011;3464;42.728;23.296;2023-07-29T01:18:43;18.23;;;4.23;;
6850;SDS011;3464;42.728;23.296;2023-07-29T01:21:10;11.13;;;3.67;;
6850;SDS011;3464;42.728;23.296;2023-07-29T01:23:36;10.67;;;4.07;;
6850;SDS011;3464;42.728;23.296;2023-07-29T01:26:03;11.73;;;4.53;;
6850;SDS011;3464;42.728;23.296;2023-07-29T01:28:30;13.60;;;4.50;;
6850;SDS011;3464;42.728;23.296;2023-07-29T01:31:01;11.43;;;3.87;;
6850;SDS011;3464;42.728;23.296;2023-07-29T01:33:25;10.90;;;4.40;;
6850;SDS011;3464;42.728;23.296;2023-07-29T01:35:54;13.57;;;4.37;;
6850;SDS011;3464;42.728;23.296;2023-07-29T01:38:35;10.27;;;4.03;;
6850;SDS011;3464;42.728;23.296;2023-07-29T01:41:01;13.20;;;4.77;;
6850;SDS011;3464;42.728;23.296;2023-07-29T01:43:28;12.13;;;4.33;;
6850;SDS011;3464;42.728;23.296;2023-07-29T01:45:55;10.50;;;4.10;;
6850;SDS011;3464;42.728;23.296;2023-07-29T01:48:22;11.57;;;4.30;;
6850;SDS011;3464;42.728;23.296;2023-07-29T01:50:49;10.77;;;3.93;;
6850;SDS011;3464;42.728;23.296;2023-07-29T01:53:16;16.63;;;4.40;;
6850;SDS011;3464;42.728;23.296;2023-07-29T01:55:43;11.40;;;4.50;;
6850;SDS011;3464;42.728;23.296;2023-07-29T01:58:09;11.00;;;3.80;;
6850;SDS011;3464;42.728;23.296;2023-07-29T02:00:36;11.40;;;3.70;;
6850;SDS011;3464;42.728;23.296;2023-07-29T02:03:02;12.10;;;4.10;;
6850;SDS011;3464;42.728;23.296;2023-07-29T02:05:30;11.13;;;3.83;;
6850;SDS011;3464;42.728;23.296;2023-07-29T02:07:57;10.53;;;3.93;;
6850;SDS011;3464;42.728;23.296;2023-07-29T02:10:23;10.33;;;3.80;;
6850;SDS011;3464;42.728;23.296;2023-07-29T02:12:50;17.30;;;4.17;;
6850;SDS011;3464;42.728;23.296;2023-07-29T02:15:16;10.33;;;4.00;;
6850;SDS011;3464;42.728;23.296;2023-07-29T02:17:44;12.30;;;4.17;;
6850;SDS011;3464;42.728;23.296;2023-07-29T02:20:10;11.43;;;3.90;;
6850;SDS011;3464;42.728;23.296;2023-07-29T02:22:37;11.03;;;4.33;;
6850;SDS011;3464;42.728;23.296;2023-07-29T02:25:04;11.77;;;4.47;;
6850;SDS011;3464;42.728;23.296;2023-07-29T02:27:31;12.40;;;4.20;;
6850;SDS011;3464;42.728;23.296;2023-07-29T02:29:58;12.30;;;4.73;;
6850;SDS011;3464;42.728;23.296;2023-07-29T02:32:25;10.80;;;4.43;;
6850;SDS011;3464;42.728;23.296;2023-07-29T02:34:51;11.20;;;4.50;;
6850;SDS011;3464;42.728;23.296;2023-07-29T02:37:19;14.20;;;4.20;;
6850;SDS011;3464;42.728;23.296;2023-07-29T02:39:45;11.00;;;4.43;;
6850;SDS011;3464;42.728;23.296;2023-07-29T02:42:12;13.43;;;4.60;;
6850;SDS011;3464;42.728;23.296;2023-07-29T02:44:39;12.47;;;4.87;;
6850;SDS011;3464;42.728;23.296;2023-07-29T02:47:05;12.27;;;4.33;;
6850;SDS011;3464;42.728;23.296;2023-07-29T02:49:31;10.70;;;4.33;;
6850;SDS011;3464;42.728;23.296;2023-07-29T02:51:58;11.80;;;4.60;;
6850;SDS011;3464;42.728;23.296;2023-07-29T02:54:24;11.57;;;4.57;;
6850;SDS011;3464;42.728;23.296;2023-07-29T02:56:51;11.23;;;4.20;;
6850;SDS011;3464;42.728;23.296;2023-07-29T02:59:17;12.87;;;4.60;;
6850;SDS011;3464;42.728;23.296;2023-07-29T03:01:44;12.43;;;4.73;;
6850;SDS011;3464;42.728;23.296;2023-07-29T03:04:10;16.20;;;5.30;;
6850;SDS011;3464;42.728;23.296;2023-07-29T03:06:40;18.83;;;5.07;;
6850;SDS011;3464;42.728;23.296;2023-07-29T03:09:07;11.77;;;4.57;;
6850;SDS011;3464;42.728;23.296;2023-07-29T03:11:35;11.30;;;4.77;;
6850;SDS011;3464;42.728;23.296;2023-07-29T03:14:01;10.73;;;4.43;;
6850;SDS011;3464;42.728;23.296;2023-07-29T03:16:28;12.03;;;4.37;;
6850;SDS011;3464;42.728;23.296;2023-07-29T03:18:54;15.20;;;4.63;;
6850;SDS011;3464;42.728;23.296;2023-07-29T03:21:21;13.30;;;5.43;;
6850;SDS011;3464;42.728;23.296;2023-07-29T03:23:47;15.27;;;5.27;;
6850;SDS011;3464;42.728;23.296;2023-07-29T03:26:14;15.63;;;5.50;;
6850;SDS011;3464;42.728;23.296;2023-07-29T03:28:41;12.53;;;5.30;;
6850;SDS011;3464;42.728;23.296;2023-07-29T03:31:07;14.17;;;5.40;;
6850;SDS011;3464;42.728;23.296;2023-07-29T03:33:34;11.43;;;5.00;;
6850;SDS011;3464;42.728;23.296;2023-07-29T03:36:00;13.87;;;5.33;;
6850;SDS011;3464;42.728;23.296;2023-07-29T03:38:27;12.30;;;5.00;;
6850;SDS011;3464;42.728;23.296;2023-07-29T03:40:53;13.00;;;4.80;;
6850;SDS011;3464;42.728;23.296;2023-07-29T03:43:20;15.00;;;5.33;;
6850;SDS011;3464;42.728;23.296;2023-07-29T03:45:47;12.43;;;4.63;;
6850;SDS011;3464;42.728;23.296;2023-07-29T03:48:13;12.47;;;4.93;;
6850;SDS011;3464;42.728;23.296;2023-07-29T03:50:40;13.33;;;5.10;;
6850;SDS011;3464;42.728;23.296;2023-07-29T03:53:06;12.43;;;4.33;;
6850;SDS011;3464;42.728;23.296;2023-07-29T03:55:33;13.60;;;4.80;;
6850;SDS011;3464;42.728;23.296;2023-07-29T03:58:00;10.37;;;4.13;;
6850;SDS011;3464;42.728;23.296;2023-07-29T04:00:26;15.10;;;4.27;;
6850;SDS011;3464;42.728;23.296;2023-07-29T04:02:53;13.10;;;4.70;;
6850;SDS011;3464;42.728;23.296;2023-07-29T04:05:19;11.47;;;4.43;;
6850;SDS011;3464;42.728;23.296;2023-07-29T04:07:48;11.00;;;3.90;;
6850;SDS011;3464;42.728;23.296;2023-07-29T04:10:14;12.90;;;3.93;;
6850;SDS011;3464;42.728;23.296;2023-07-29T04:12:41;10.53;;;3.80;;
6850;SDS011;3464;42.728;23.296;2023-07-29T04:15:07;10.00;;;3.37;;
6850;SDS011;3464;42.728;23.296;2023-07-29T04:17:34;9.70;;;3.40;;
6850;SDS011;3464;42.728;23.296;2023-07-29T04:20:01;14.43;;;3.90;;
6850;SDS011;3464;42.728;23.296;2023-07-29T04:22:28;17.03;;;3.83;;
6850;SDS011;3464;42.728;23.296;2023-07-29T04:24:54;10.67;;;3.90;;
6850;SDS011;3464;42.728;23.296;2023-07-29T04:27:21;10.40;;;3.93;;
6850;SDS011;3464;42.728;23.296;2023-07-29T04:29:48;12.03;;;3.90;;
6850;SDS011;3464;42.728;23.296;2023-07-29T04:32:15;10.00;;;3.40;;
6850;SDS011;3464;42.728;23.296;2023-07-29T04:34:41;11.30;;;3.70;;
6850;SDS011;3464;42.728;23.296;2023-07-29T04:37:09;10.50;;;3.17;;
6850;SDS011;3464;42.728;23.296;2023-07-29T04:39:36;10.70;;;4.00;;
6850;SDS011;3464;42.728;23.296;2023-07-29T04:42:04;9.90;;;3.53;;
6850;SDS011;3464;42.728;23.296;2023-07-29T04:44:31;10.80;;;3.50;;
6850;SDS011;3464;42.728;23.296;2023-07-29T04:46:58;11.97;;;3.83;;
6850;SDS011;3464;42.728;23.296;2023-07-29T04:49:25;10.40;;;3.37;;
6850;SDS011;3464;42.728;23.296;2023-07-29T04:51:52;9.20;;;3.40;;
6850;SDS011;3464;42.728;23.296;2023-07-29T04:54:18;11.10;;;3.67;;
6850;SDS011;3464;42.728;23.296;2023-07-29T04:56:45;11.73;;;3.40;;
6850;SDS011;3464;42.728;23.296;2023-07-29T04:59:11;10.70;;;3.47;;
6850;SDS011;3464;42.728;23.296;2023-07-29T05:01:38;11.57;;;3.67;;
6850;SDS011;3464;42.728;23.296;2023-07-29T05:04:04;13.10;;;3.70;;
6850;SDS011;3464;42.728;23.296;2023-07-29T05:06:31;11.60;;;3.97;;
6850;SDS011;3464;42.728;23.296;2023-07-29T05:09:11;13.20;;;4.00;;
6850;SDS011;3464;42.728;23.296;2023-07-29T05:11:26;12.50;;;4.10;;
6850;SDS011;3464;42.728;23.296;2023-07-29T05:13:53;13.20;;;4.30;;
6850;SDS011;3464;42.728;23.296;2023-07-29T05:16:19;14.13;;;4.20;;
6850;SDS011;3464;42.728;23.296;2023-07-29T05:18:46;14.53;;;4.37;;
6850;SDS011;3464;42.728;23.296;2023-07-29T05:21:12;19.60;;;4.10;;
6850;SDS011;3464;42.728;23.296;2023-07-29T05:23:39;16.73;;;3.83;;
6850;SDS011;3464;42.728;23.296;2023-07-29T05:26:05;13.77;;;3.87;;
6850;SDS011;3464;42.728;23.296;2023-07-29T05:28:32;16.20;;;3.73;;
6850;SDS011;3464;42.728;23.296;2023-07-29T05:31:00;17.60;;;5.10;;
6850;SDS011;3464;42.728;23.296;2023-07-29T05:33:26;16.63;;;4.20;;
6850;SDS011;3464;42.728;23.296;2023-07-29T05:35:54;15.07;;;3.67;;
6850;SDS011;3464;42.728;23.296;2023-07-29T05:38:20;18.43;;;4.40;;
6850;SDS011;3464;42.728;23.296;2023-07-29T05:40:48;14.73;;;4.30;;
6850;SDS011;3464;42.728;23.296;2023-07-29T05:43:15;10.10;;;3.53;;
6850;SDS011;3464;42.728;23.296;2023-07-29T05:45:41;11.50;;;4.00;;
6850;SDS011;3464;42.728;23.296;2023-07-29T05:48:08;13.03;;;4.40;;
6850;SDS011;3464;42.728;23.296;2023-07-29T05:50:34;14.80;;;3.80;;
6850;SDS011;3464;42.728;23.296;2023-07-29T05:53:01;13.93;;;4.47;;
6850;SDS011;3464;42.728;23.296;2023-07-29T05:55:27;12.70;;;4.20;;
6850;SDS011;3464;42.728;23.296;2023-07-29T05:57:54;11.03;;;4.30;;
6850;SDS011;3464;42.728;23.296;2023-07-29T06:00:20;10.90;;;3.90;;
6850;SDS011;3464;42.728;23.296;2023-07-29T06:02:47;11.90;;;4.10;;
6850;SDS011;3464;42.728;23.296;2023-07-29T06:05:13;13.33;;;4.37;;
6850;SDS011;3464;42.728;23.296;2023-07-29T06:07:40;13.40;;;4.10;;
6850;SDS011;3464;42.728;23.296;2023-07-29T06:10:07;9.93;;;3.40;;
6850;SDS011;3464;42.728;23.296;2023-07-29T06:12:34;12.97;;;4.07;;
6850;SDS011;3464;42.728;23.296;2023-07-29T06:15:00;13.47;;;4.43;;
6850;SDS011;3464;42.728;23.296;2023-07-29T06:17:27;13.50;;;3.93;;
6850;SDS011;3464;42.728;23.296;2023-07-29T06:19:53;14.83;;;4.60;;
6850;SDS011;3464;42.728;23.296;2023-07-29T06:22:20;19.53;;;3.93;;
6850;SDS011;3464;42.728;23.296;2023-07-29T06:24:46;9.53;;;3.90;;
6850;SDS011;3464;42.728;23.296;2023-07-29T06:27:13;11.70;;;3.70;;
6850;SDS011;3464;42.728;23.296;2023-07-29T06:29:39;9.87;;;3.77;;
6850;SDS011;3464;42.728;23.296;2023-07-29T06:32:06;11.37;;;3.77;;
6850;SDS011;3464;42.728;23.296;2023-07-29T06:34:33;14.47;;;3.97;;
6850;SDS011;3464;42.728;23.296;2023-07-29T06:37:00;11.40;;;3.97;;
6850;SDS011;3464;42.728;23.296;2023-07-29T06:39:26;11.33;;;4.20;;
6850;SDS011;3464;42.728;23.296;2023-07-29T06:41:53;12.27;;;4.23;;
6850;SDS011;3464;42.728;23.296;2023-07-29T06:44:19;11.70;;;3.90;;
6850;SDS011;3464;42.728;23.296;2023-07-29T06:46:46;15.13;;;4.17;;
6850;SDS011;3464;42.728;23.296;2023-07-29T06:49:12;12.50;;;4.23;;
6850;SDS011;3464;42.728;23.296;2023-07-29T06:51:39;14.33;;;4.40;;
6850;SDS011;3464;42.728;23.296;2023-07-29T06:54:06;15.30;;;4.47;;
6850;SDS011;3464;42.728;23.296;2023-07-29T06:56:32;17.43;;;4.33;;
6850;SDS011;3464;42.728;23.296;2023-07-29T06:58:59;13.60;;;4.87;;
6850;SDS011;3464;42.728;23.296;2023-07-29T07:01:26;11.63;;;4.00;;
6850;SDS011;3464;42.728;23.296;2023-07-29T07:03:52;11.93;;;3.63;;
6850;SDS011;3464;42.728;23.296;2023-07-29T07:06:20;17.73;;;4.93;;
6850;SDS011;3464;42.728;23.296;2023-07-29T07:08:46;16.15;;;4.10;;
6850;SDS011;3464;42.728;23.296;2023-07-29T07:11:13;12.55;;;4.57;;
6850;SDS011;3464;42.728;23.296;2023-07-29T07:13:39;15.30;;;4.67;;
6850;SDS011;3464;42.728;23.296;2023-07-29T07:16:06;13.25;;;4.40;;
6850;SDS011;3464;42.728;23.296;2023-07-29T07:18:32;13.73;;;4.40;;
6850;SDS011;3464;42.728;23.296;2023-07-29T07:20:59;11.90;;;4.85;;
6850;SDS011;3464;42.728;23.296;2023-07-29T07:23:25;12.27;;;4.82;;
6850;SDS011;3464;42.728;23.296;2023-07-29T07:25:52;15.23;;;4.87;;
6850;SDS011;3464;42.728;23.296;2023-07-29T07:28:18;12.30;;;4.15;;
6850;SDS011;3464;42.728;23.296;2023-07-29T07:30:45;12.57;;;4.20;;
6850;SDS011;3464;42.728;23.296;2023-07-29T07:33:11;16.48;;;4.10;;
6850;SDS011;3464;42.728;23.296;2023-07-29T07:35:38;18.27;;;4.10;;
6850;SDS011;3464;42.728;23.296;2023-07-29T07:38:05;11.15;;;4.65;;
6850;SDS011;3464;42.728;23.296;2023-07-29T07:40:32;12.53;;;4.20;;
6850;SDS011;3464;42.728;23.296;2023-07-29T07:42:59;13.97;;;3.80;;
6850;SDS011;3464;42.728;23.296;2023-07-29T07:45:26;11.60;;;4.03;;
6850;SDS011;3464;42.728;23.296;2023-07-29T07:47:54;10.63;;;4.00;;
6850;SDS011;3464;42.728;23.296;2023-07-29T07:50:20;10.40;;;3.63;;
6850;SDS011;3464;42.728;23.296;2023-07-29T07:52:47;11.93;;;3.43;;
6850;SDS011;3464;42.728;23.296;2023-07-29T07:55:13;13.63;;;3.40;;
6850;SDS011;3464;42.728;23.296;2023-07-29T07:57:40;10.00;;;3.10;;
6850;SDS011;3464;42.728;23.296;2023-07-29T08:00:06;14.23;;;3.70;;
6850;SDS011;3464;42.728;23.296;2023-07-29T08:02:33;9.60;;;3.00;;
6850;SDS011;3464;42.728;23.296;2023-07-29T08:05:00;18.33;;;3.80;;
6850;SDS011;3464;42.728;23.296;2023-07-29T08:07:26;10.30;;;3.00;;
6850;SDS011;3464;42.728;23.296;2023-07-29T08:09:53;8.60;;;2.83;;
6850;SDS011;3464;42.728;23.296;2023-07-29T08:12:22;11.23;;;2.77;;
6850;SDS011;3464;42.728;23.296;2023-07-29T08:14:48;9.57;;;2.93;;
6850;SDS011;3464;42.728;23.296;2023-07-29T08:17:15;8.97;;;3.10;;
6850;SDS011;3464;42.728;23.296;2023-07-29T08:19:41;12.37;;;3.27;;
6850;SDS011;3464;42.728;23.296;2023-07-29T08:22:08;11.90;;;3.50;;
6850;SDS011;3464;42.728;23.296;2023-07-29T08:24:34;11.50;;;3.27;;
6850;SDS011;3464;42.728;23.296;2023-07-29T08:27:01;11.97;;;3.73;;
6850;SDS011;3464;42.728;23.296;2023-07-29T08:29:27;15.20;;;3.43;;
6850;SDS011;3464;42.728;23.296;2023-07-29T08:31:54;11.20;;;3.47;;
6850;SDS011;3464;42.728;23.296;2023-07-29T08:34:20;10.00;;;3.30;;
6850;SDS011;3464;42.728;23.296;2023-07-29T08:36:47;10.50;;;3.50;;
6850;SDS011;3464;42.728;23.296;2023-07-29T08:39:14;10.97;;;3.10;;
6850;SDS011;3464;42.728;23.296;2023-07-29T08:41:45;10.07;;;3.23;;
6850;SDS011;3464;42.728;23.296;2023-07-29T08:44:15;10.13;;;3.40;;
6850;SDS011;3464;42.728;23.296;2023-07-29T08:46:39;11.17;;;3.27;;
6850;SDS011;3464;42.728;23.296;2023-07-29T08:49:05;10.00;;;3.20;;
6850;SDS011;3464;42.728;23.296;2023-07-29T08:51:31;11.03;;;3.57;;
6850;SDS011;3464;42.728;23.296;2023-07-29T08:53:58;12.80;;;3.10;;
6850;SDS011;3464;42.728;23.296;2023-07-29T08:56:24;11.80;;;3.73;;
6850;SDS011;3464;42.728;23.296;2023-07-29T08:58:51;13.60;;;3.30;;
6850;SDS011;3464;42.728;23.296;2023-07-29T09:01:17;10.90;;;3.70;;
6850;SDS011;3464;42.728;23.296;2023-07-29T09:03:44;15.13;;;4.57;;
6850;SDS011;3464;42.728;23.296;2023-07-29T09:06:11;12.33;;;3.50;;
6850;SDS011;3464;42.728;23.296;2023-07-29T09:08:37;13.17;;;3.57;;
6850;SDS011;3464;42.728;23.296;2023-07-29T09:11:04;10.80;;;3.00;;
6850;SDS011;3464;42.728;23.296;2023-07-29T09:13:31;12.90;;;2.80;;
6850;SDS011;3464;42.728;23.296;2023-07-29T09:15:59;9.20;;;2.90;;
6850;SDS011;3464;42.728;23.296;2023-07-29T09:18:26;12.50;;;3.33;;
6850;SDS011;3464;42.728;23.296;2023-07-29T09:20:52;10.57;;;2.90;;
6850;SDS011;3464;42.728;23.296;2023-07-29T09:23:18;8.93;;;2.67;;
6850;SDS011;3464;42.728;23.296;2023-07-29T09:25:46;11.43;;;2.50;;
6850;SDS011;3464;42.728;23.296;2023-07-29T09:28:13;8.77;;;2.60;;
6850;SDS011;3464;42.728;23.296;2023-07-29T09:30:40;11.60;;;2.70;;
6850;SDS011;3464;42.728;23.296;2023-07-29T09:33:06;16.20;;;3.13;;
6850;SDS011;3464;42.728;23.296;2023-07-29T09:35:33;9.70;;;2.47;;
6850;SDS011;3464;42.728;23.296;2023-07-29T09:37:59;11.00;;;2.80;;
6850;SDS011;3464;42.728;23.296;2023-07-29T09:40:26;11.87;;;3.03;;
6850;SDS011;3464;42.728;23.296;2023-07-29T09:42:53;11.77;;;2.67;;
6850;SDS011;3464;42.728;23.296;2023-07-29T09:45:21;9.17;;;2.73;;
6850;SDS011;3464;42.728;23.296;2023-07-29T09:47:48;9.27;;;2.57;;
6850;SDS011;3464;42.728;23.296;2023-07-29T09:50:15;9.47;;;2.20;;
6850;SDS011;3464;42.728;23.296;2023-07-29T09:52:43;9.67;;;1.90;;
6850;SDS011;3464;42.728;23.296;2023-07-29T09:55:12;9.73;;;2.43;;
6850;SDS011;3464;42.728;23.296;2023-07-29T09:57:40;8.87;;;1.93;;
6850;SDS011;3464;42.728;23.296;2023-07-29T10:00:09;8.47;;;1.87;;
6850;SDS011;3464;42.728;23.296;2023-07-29T10:02:34;9.87;;;2.30;;
6850;SDS011;3464;42.728;23.296;2023-07-29T10:05:01;12.00;;;2.20;;
6850;SDS011;3464;42.728;23.296;2023-07-29T10:07:28;9.83;;;3.30;;
6850;SDS011;3464;42.728;23.296;2023-07-29T10:09:54;9.33;;;2.33;;
6850;SDS011;3464;42.728;23.296;2023-07-29T10:12:21;10.03;;;3.57;;
6850;SDS011;3464;42.728;23.296;2023-07-29T10:14:50;8.90;;;2.60;;
6850;SDS011;3464;42.728;23.296;2023-07-29T10:17:16;18.10;;;2.40;;
6850;SDS011;3464;42.728;23.296;2023-07-29T10:19:43;8.30;;;2.00;;
6850;SDS011;3464;42.728;23.296;2023-07-29T10:22:09;11.93;;;2.00;;
6850;SDS011;3464;42.728;23.296;2023-07-29T10:24:36;9.07;;;1.90;;
6850;SDS011;3464;42.728;23.296;2023-07-29T10:27:03;11.80;;;1.90;;
6850;SDS011;3464;42.728;23.296;2023-07-29T10:29:32;8.07;;;1.50;;
6850;SDS011;3464;42.728;23.296;2023-07-29T10:32:00;10.10;;;2.00;;
6850;SDS011;3464;42.728;23.296;2023-07-29T10:34:25;10.23;;;3.27;;
6850;SDS011;3464;42.728;23.296;2023-07-29T10:36:51;10.50;;;2.20;;
6850;SDS011;3464;42.728;23.296;2023-07-29T10:39:18;13.30;;;2.00;;
6850;SDS011;3464;42.728;23.296;2023-07-29T10:44:54;7.77;;;1.87;;
6850;SDS011;3464;42.728;23.296;2023-07-29T10:47:15;8.37;;;1.70;;
6850;SDS011;3464;42.728;23.296;2023-07-29T10:49:42;13.30;;;1.90;;
6850;SDS011;3464;42.728;23.296;2023-07-29T10:52:08;8.10;;;1.70;;
6850;SDS011;3464;42.728;23.296;2023-07-29T10:57:13;9.00;;;2.87;;
6850;SDS011;3464;42.728;23.296;2023-07-29T10:59:39;8.67;;;2.17;;
6850;SDS011;3464;42.728;23.296;2023-07-29T11:02:22;11.03;;;2.07;;
6850;SDS011;3464;42.728;23.296;2023-07-29T11:04:50;9.43;;;2.80;;
6850;SDS011;3464;42.728;23.296;2023-07-29T11:07:19;9.53;;;1.83;;
6850;SDS011;3464;42.728;23.296;2023-07-29T11:09:52;10.00;;;1.97;;
6850;SDS011;3464;42.728;23.296;2023-07-29T11:14:59;7.97;;;1.77;;
6850;SDS011;3464;42.728;23.296;2023-07-29T11:17:24;9.10;;;2.30;;
6850;SDS011;3464;42.728;23.296;2023-07-29T11:19:52;9.70;;;1.60;;
6850;SDS011;3464;42.728;23.296;2023-07-29T11:22:18;9.17;;;2.07;;
6850;SDS011;3464;42.728;23.296;2023-07-29T11:24:45;9.07;;;2.03;;
6850;SDS011;3464;42.728;23.296;2023-07-29T11:27:11;10.90;;;2.43;;
6850;SDS011;3464;42.728;23.296;2023-07-29T11:29:38;8.37;;;1.83;;
6850;SDS011;3464;42.728;23.296;2023-07-29T11:32:04;8.10;;;1.80;;
6850;SDS011;3464;42.728;23.296;2023-07-29T11:34:32;8.90;;;1.97;;
6850;SDS011;3464;42.728;23.296;2023-07-29T11:36:58;8.30;;;1.73;;
6850;SDS011;3464;42.728;23.296;2023-07-29T11:39:24;9.70;;;2.20;;
6850;SDS011;3464;42.728;23.296;2023-07-29T11:41:51;9.33;;;2.10;;
6850;SDS011;3464;42.728;23.296;2023-07-29T11:44:18;7.97;;;1.80;;
6850;SDS011;3464;42.728;23.296;2023-07-29T11:46:44;7.87;;;1.83;;
6850;SDS011;3464;42.728;23.296;2023-07-29T11:49:11;8.10;;;1.80;;
6850;SDS011;3464;42.728;23.296;2023-07-29T11:51:37;8.83;;;1.90;;
6850;SDS011;3464;42.728;23.296;2023-07-29T11:54:04;12.40;;;2.10;;
6850;SDS011;3464;42.728;23.296;2023-07-29T11:56:30;8.30;;;1.70;;
6850;SDS011;3464;42.728;23.296;2023-07-29T11:58:57;8.93;;;2.23;;
6850;SDS011;3464;42.728;23.296;2023-07-29T12:01:23;8.27;;;2.00;;
6850;SDS011;3464;42.728;23.296;2023-07-29T12:03:50;8.80;;;2.07;;
6850;SDS011;3464;42.728;23.296;2023-07-29T12:06:17;9.30;;;2.50;;
6850;SDS011;3464;42.728;23.296;2023-07-29T12:08:44;9.00;;;2.10;;
6850;SDS011;3464;42.728;23.296;2023-07-29T12:11:10;8.37;;;2.33;;
6850;SDS011;3464;42.728;23.296;2023-07-29T12:13:37;9.30;;;2.17;;
6850;SDS011;3464;42.728;23.296;2023-07-29T12:16:03;8.20;;;2.07;;
6850;SDS011;3464;42.728;23.296;2023-07-29T12:18:30;8.40;;;2.00;;
6850;SDS011;3464;42.728;23.296;2023-07-29T12:20:56;9.03;;;2.30;;
6850;SDS011;3464;42.728;23.296;2023-07-29T12:23:24;8.40;;;2.03;;
6850;SDS011;3464;42.728;23.296;2023-07-29T12:25:56;10.20;;;1.90;;
6850;SDS011;3464;42.728;23.296;2023-07-29T12:28:18;9.10;;;1.97;;
6850;SDS011;3464;42.728;23.296;2023-07-29T12:30:44;8.37;;;2.03;;
6850;SDS011;3464;42.728;23.296;2023-07-29T12:33:11;10.63;;;2.30;;
6850;SDS011;3464;42.728;23.296;2023-07-29T12:35:38;10.10;;;2.30;;
6850;SDS011;3464;42.728;23.296;2023-07-29T12:38:05;9.60;;;2.00;;
6850;SDS011;3464;42.728;23.296;2023-07-29T12:40:32;9.17;;;1.90;;
6850;SDS011;3464;42.728;23.296;2023-07-29T12:42:58;8.20;;;1.60;;
6850;SDS011;3464;42.728;23.296;2023-07-29T12:45:25;8.60;;;1.80;;
6850;SDS011;3464;42.728;23.296;2023-07-29T12:47:52;11.80;;;2.57;;
6850;SDS011;3464;42.728;23.296;2023-07-29T12:50:20;10.60;;;2.17;;
6850;SDS011;3464;42.728;23.296;2023-07-29T12:52:46;8.70;;;2.00;;
6850;SDS011;3464;42.728;23.296;2023-07-29T12:55:13;8.70;;;2.10;;
6850;SDS011;3464;42.728;23.296;2023-07-29T12:57:41;8.03;;;1.90;;
6850;SDS011;3464;42.728;23.296;2023-07-29T13:00:07;8.70;;;2.00;;
6850;SDS011;3464;42.728;23.296;2023-07-29T13:02:34;8.90;;;2.17;;
6850;SDS011;3464;42.728;23.296;2023-07-29T13:05:02;10.27;;;2.00;;
6850;SDS011;3464;42.728;23.296;2023-07-29T13:07:29;9.47;;;2.03;;
6850;SDS011;3464;42.728;23.296;2023-07-29T13:09:56;9.40;;;2.10;;
6850;SDS011;3464;42.728;23.296;2023-07-29T13:12:22;11.10;;;2.03;;
6850;SDS011;3464;42.728;23.296;2023-07-29T13:14:49;8.20;;;1.80;;
6850;SDS011;3464;42.728;23.296;2023-07-29T13:17:17;8.80;;;2.40;;
6850;SDS011;3464;42.728;23.296;2023-07-29T13:19:44;9.20;;;1.93;;
6850;SDS011;3464;42.728;23.296;2023-07-29T13:22:10;7.93;;;1.80;;
6850;SDS011;3464;42.728;23.296;2023-07-29T13:24:39;9.23;;;2.13;;
6850;SDS011;3464;42.728;23.296;2023-07-29T13:27:05;13.43;;;1.93;;
6850;SDS011;3464;42.728;23.296;2023-07-29T13:29:32;9.53;;;2.10;;
6850;SDS011;3464;42.728;23.296;2023-07-29T13:31:59;16.60;;;2.43;;
6850;SDS011;3464;42.728;23.296;2023-07-29T13:34:26;10.40;;;1.97;;
6850;SDS011;3464;42.728;23.296;2023-07-29T13:36:53;11.83;;;2.00;;
6850;SDS011;3464;42.728;23.296;2023-07-29T13:39:19;9.90;;;2.20;;
6850;SDS011;3464;42.728;23.296;2023-07-29T13:41:46;9.10;;;2.13;;
6850;SDS011;3464;42.728;23.296;2023-07-29T13:44:13;9.60;;;2.00;;
6850;SDS011;3464;42.728;23.296;2023-07-29T13:46:39;8.77;;;2.17;;
6850;SDS011;3464;42.728;23.296;2023-07-29T13:49:06;12.17;;;2.00;;
6850;SDS011;3464;42.728;23.296;2023-07-29T13:51:32;10.10;;;2.30;;
6850;SDS011;3464;42.728;23.296;2023-07-29T13:53:59;12.70;;;2.27;;
6850;SDS011;3464;42.728;23.296;2023-07-29T13:56:25;9.73;;;2.20;;
6850;SDS011;3464;42.728;23.296;2023-07-29T13:58:52;9.67;;;2.40;;
6850;SDS011;3464;42.728;23.296;2023-07-29T14:01:19;11.37;;;2.20;;
6850;SDS011;3464;42.728;23.296;2023-07-29T14:03:45;9.30;;;2.50;;
6850;SDS011;3464;42.728;23.296;2023-07-29T14:06:12;8.73;;;2.10;;
6850;SDS011;3464;42.728;23.296;2023-07-29T14:08:39;9.43;;;2.13;;
6850;SDS011;3464;42.728;23.296;2023-07-29T14:11:05;8.80;;;2.30;;
6850;SDS011;3464;42.728;23.296;2023-07-29T14:13:32;9.90;;;2.40;;
6850;SDS011;3464;42.728;23.296;2023-07-29T14:16:01;8.30;;;2.27;;
6850;SDS011;3464;42.728;23.296;2023-07-29T14:18:27;9.10;;;2.10;;
6850;SDS011;3464;42.728;23.296;2023-07-29T14:20:54;9.53;;;3.17;;
6850;SDS011;3464;42.728;23.296;2023-07-29T14:23:20;8.73;;;2.37;;
6850;SDS011;3464;42.728;23.296;2023-07-29T14:25:47;10.90;;;2.50;;
6850;SDS011;3464;42.728;23.296;2023-07-29T14:28:14;9.00;;;2.50;;
6850;SDS011;3464;42.728;23.296;2023-07-29T14:30:40;8.33;;;2.20;;
6850;SDS011;3464;42.728;23.296;2023-07-29T14:33:07;8.50;;;2.37;;
6850;SDS011;3464;42.728;23.296;2023-07-29T14:35:33;11.57;;;2.23;;
6850;SDS011;3464;42.728;23.296;2023-07-29T14:38:00;12.60;;;2.70;;
6850;SDS011;3464;42.728;23.296;2023-07-29T14:40:28;8.63;;;2.27;;
6850;SDS011;3464;42.728;23.296;2023-07-29T14:42:54;9.13;;;2.30;;
6850;SDS011;3464;42.728;23.296;2023-07-29T14:45:21;8.10;;;2.10;;
6850;SDS011;3464;42.728;23.296;2023-07-29T14:47:47;8.80;;;2.30;;
6850;SDS011;3464;42.728;23.296;2023-07-29T14:50:14;11.20;;;2.43;;
6850;SDS011;3464;42.728;23.296;2023-07-29T14:52:40;9.37;;;2.10;;
6850;SDS011;3464;42.728;23.296;2023-07-29T14:55:07;10.17;;;2.50;;
6850;SDS011;3464;42.728;23.296;2023-07-29T14:57:34;9.60;;;2.17;;
6850;SDS011;3464;42.728;23.296;2023-07-29T15:00:00;8.40;;;2.30;;